Time;durP1;ratioP1;P1;durP2;ratioP2;P2;SDS_P1;SDS_P2;PMS_P1;PMS_P2;Temp;Humidity;BMP_temperature;BMP_pressure;BME280_temperature;BME280_humidity;BME280_pressure;Samples;Min_cycle;Max_cycle;Signal;HPM_P1;HPM_P2
2021/06/11 00:01:41;;;;;;;1.55;0.35;;;;;;;-148.58;100.00;55229.56;5013319;28;20461;-61
2021/06/11 00:04:06;;;;;;;1.33;0.50;;;;;;;-148.58;100.00;55229.56;5012433;28;20026;-60
2021/06/11 00:06:32;;;;;;;0.95;0.40;;;;;;;-148.58;100.00;55229.56;5013626;28;20037;-61
2021/06/11 00:08:58;;;;;;;0.60;0.40;;;;;;;-148.58;100.00;55229.56;5015750;28;20021;-60
2021/06/11 00:11:24;;;;;;;0.40;0.40;;;;;;;-148.58;100.00;55229.56;5032978;28;20025;-60
2021/06/11 00:13:49;;;;;;;0.80;0.60;;;;;;;-148.58;100.00;55229.56;5032642;28;20032;-60
2021/06/11 00:16:14;;;;;;;0.70;0.50;;;;;;;-148.58;100.00;55229.56;5032828;28;20415;-60
2021/06/11 00:18:40;;;;;;;0.85;0.47;;;;;;;-148.58;100.00;55229.56;5032772;28;20052;-60
2021/06/11 00:21:05;;;;;;;1.13;0.40;;;;;;;-148.58;100.00;55229.56;5032856;28;20104;-60
2021/06/11 00:23:30;;;;;;;0.60;0.60;;;;;;;-148.58;100.00;55229.56;5032212;28;20395;-60
2021/06/11 00:25:56;;;;;;;0.40;0.40;;;;;;;-148.58;100.00;55229.56;5013042;28;20041;-60
2021/06/11 00:28:21;;;;;;;1.05;0.47;;;;;;;-148.58;100.00;55229.56;5013119;28;20029;-61
2021/06/11 00:30:46;;;;;;;0.88;0.52;;;;;;;-148.58;100.00;55229.56;5012831;28;20072;-60
2021/06/11 00:33:12;;;;;;;0.73;0.73;;;;;;;-148.58;100.00;55229.56;5012816;28;20373;-60
2021/06/11 00:35:37;;;;;;;1.35;0.63;;;;;;;-148.58;100.00;55229.56;5012706;28;20022;-60
2021/06/11 00:38:03;;;;;;;0.45;0.40;;;;;;;-148.58;100.00;55229.56;5012896;28;20101;-60
2021/06/11 00:40:30;;;;;;;0.90;0.47;;;;;;;-148.58;100.00;55229.56;5011421;28;20029;-60
2021/06/11 00:42:55;;;;;;;0.68;0.57;;;;;;;-148.58;100.00;55229.56;5032366;28;20432;-60
2021/06/11 00:45:20;;;;;;;0.52;0.40;;;;;;;-148.58;100.00;55229.56;5032546;28;20543;-61
2021/06/11 00:47:47;;;;;;;0.85;0.57;;;;;;;-148.58;100.00;55229.56;5032416;28;20041;-59
2021/06/11 00:50:18;;;;;;;0.60;0.50;;;;;;;-148.58;100.00;55229.56;5031238;28;20033;-60
2021/06/11 00:52:43;;;;;;;1.15;0.57;;;;;;;-148.58;100.00;55229.56;5031990;28;20037;-60
2021/06/11 00:55:09;;;;;;;0.30;0.30;;;;;;;-148.58;100.00;55229.56;5018273;28;20030;-60
2021/06/11 00:57:34;;;;;;;1.00;0.57;;;;;;;-148.58;100.00;55229.56;5021341;28;20029;-60
2021/06/11 01:00:00;;;;;;;0.43;0.43;;;;;;;-148.58;100.00;55229.56;5032258;28;20108;-60
2021/06/11 01:02:25;;;;;;;1.30;0.50;;;;;;;-148.58;100.00;55229.56;5032478;28;20403;-60
2021/06/11 01:04:51;;;;;;;2.40;0.70;;;;;;;-148.58;100.00;55229.56;5032231;28;20021;-60
2021/06/11 01:07:18;;;;;;;0.40;0.40;;;;;;;-148.58;100.00;55229.56;5032425;28;20086;-61
2021/06/11 01:09:45;;;;;;;0.50;0.50;;;;;;;-148.58;100.00;55229.56;5020152;28;20021;-60
2021/06/11 01:12:12;;;;;;;0.43;0.40;;;;;;;-148.58;100.00;55229.56;5012477;28;20056;-61
2021/06/11 01:14:39;;;;;;;0.85;0.50;;;;;;;-148.58;100.00;55229.56;4994692;28;20026;-61
2021/06/11 01:17:04;;;;;;;0.47;0.40;;;;;;;-148.58;100.00;55229.56;5016551;28;20036;-60
2021/06/11 01:19:36;;;;;;;0.88;0.60;;;;;;;-148.58;100.00;55229.56;5016472;28;20021;-61
2021/06/11 01:22:08;;;;;;;0.77;0.50;;;;;;;-148.58;100.00;55229.56;5016297;28;20026;-60
2021/06/11 01:24:46;;;;;;;0.60;0.50;;;;;;;-148.58;100.00;55229.56;5024864;28;20100;-61
2021/06/11 01:27:12;;;;;;;0.73;0.35;;;;;;;-148.58;100.00;55229.56;5036180;28;20061;-60
2021/06/11 01:29:38;;;;;;;0.35;0.35;;;;;;;-148.58;100.00;55229.56;5035929;28;20104;-60
2021/06/11 01:32:05;;;;;;;1.05;0.60;;;;;;;-148.58;100.00;55229.56;5035726;28;20452;-60
2021/06/11 01:34:36;;;;;;;0.50;0.50;;;;;;;-148.58;100.00;55229.56;5035787;28;20025;-61
2021/06/11 01:37:19;;;;;;;0.70;0.35;;;;;;;-148.58;100.00;55229.56;5019736;28;20025;-60
2021/06/11 01:39:54;;;;;;;0.80;0.55;;;;;;;-148.58;100.00;55229.56;5022652;28;20263;-60
2021/06/11 01:42:20;;;;;;;1.15;0.68;;;;;;;-148.58;100.00;55229.56;5016082;28;20084;-60
2021/06/11 01:44:46;;;;;;;0.40;0.30;;;;;;;-148.58;100.00;55229.56;5015647;28;20500;-60
2021/06/11 01:47:13;;;;;;;0.57;0.57;;;;;;;-148.58;100.00;55229.56;5015848;28;20076;-60
2021/06/11 01:49:42;;;;;;;1.13;0.60;;;;;;;-148.58;100.00;55229.56;5015760;28;20026;-61
2021/06/11 01:52:08;;;;;;;0.40;0.40;;;;;;;-148.58;100.00;55229.56;5015673;28;20026;-60
2021/06/11 01:54:35;;;;;;;0.57;0.50;;;;;;;-148.58;100.00;55229.56;5024014;28;20484;-60
2021/06/11 01:57:02;;;;;;;0.75;0.40;;;;;;;-148.58;100.00;55229.56;5029572;28;20017;-60
2021/06/11 01:59:27;;;;;;;0.52;0.45;;;;;;;-148.58;100.00;55229.56;5035560;28;20030;-60
2021/06/11 02:01:54;;;;;;;0.60;0.60;;;;;;;-148.58;100.00;55229.56;5035492;28;20048;-61
2021/06/11 02:04:19;;;;;;;0.40;0.40;;;;;;;-148.58;100.00;55229.56;5035435;28;20086;-60
2021/06/11 02:06:45;;;;;;;0.55;0.50;;;;;;;-148.58;100.00;55229.56;5035174;28;20473;-60
2021/06/11 02:09:11;;;;;;;0.50;0.40;;;;;;;-148.58;100.00;55229.56;5029167;28;20026;-60
2021/06/11 02:11:41;;;;;;;0.32;0.32;;;;;;;-148.58;100.00;55229.56;5015411;28;20358;-60
2021/06/11 02:14:10;;;;;;;0.52;0.50;;;;;;;-148.58;100.00;55229.56;5014991;28;20030;-60
2021/06/11 02:16:35;;;;;;;0.75;0.45;;;;;;;-148.58;100.00;55229.56;5015248;28;20132;-60
2021/06/11 02:19:02;;;;;;;0.50;0.50;;;;;;;-148.58;100.00;55229.56;5015560;28;20117;-61
2021/06/11 02:21:29;;;;;;;0.77;0.55;;;;;;;-148.58;100.00;55229.56;5015372;28;20026;-61
2021/06/11 02:23:54;;;;;;;0.80;0.43;;;;;;;-148.58;100.00;55229.56;5018383;28;20032;-60
2021/06/11 02:26:20;;;;;;;0.68;0.43;;;;;;;-148.58;100.00;55229.56;5034558;28;20025;-60
2021/06/11 02:28:45;;;;;;;0.82;0.50;;;;;;;-148.58;100.00;55229.56;5034486;28;20350;-60
2021/06/11 02:31:12;;;;;;;1.10;0.65;;;;;;;-148.58;100.00;55229.56;5034936;28;20026;-61
2021/06/11 02:33:39;;;;;;;0.68;0.50;;;;;;;-148.58;100.00;55229.56;5034592;28;20055;-60
2021/06/11 02:36:04;;;;;;;0.77;0.50;;;;;;;-148.58;100.00;55229.56;5034485;28;20033;-61
2021/06/11 02:38:29;;;;;;;1.00;0.73;;;;;;;-148.58;100.00;55229.56;5034274;28;20029;-60
2021/06/11 02:40:57;;;;;;;1.23;0.65;;;;;;;-148.58;100.00;55229.56;5014732;28;20030;-61
2021/06/11 02:43:24;;;;;;;0.43;0.40;;;;;;;-148.58;100.00;55229.56;5014850;28;20034;-60
2021/06/11 02:45:56;;;;;;;0.50;0.40;;;;;;;-148.58;100.00;55229.56;5014657;28;20063;-61
2021/06/11 02:48:34;;;;;;;0.60;0.60;;;;;;;-148.58;100.00;55229.56;5014841;28;20400;-60
2021/06/11 02:51:08;;;;;;;0.52;0.50;;;;;;;-148.58;100.00;55229.56;5014565;28;20053;-61
2021/06/11 02:53:36;;;;;;;0.75;0.52;;;;;;;-148.58;100.00;55229.56;5015089;28;20026;-60
2021/06/11 02:56:18;;;;;;;1.02;0.77;;;;;;;-148.58;100.00;55229.56;5032440;28;20040;-61
2021/06/11 02:58:50;;;;;;;1.55;0.70;;;;;;;-148.58;100.00;55229.56;5014418;28;20105;-60
2021/06/11 03:01:16;;;;;;;0.40;0.40;;;;;;;-148.58;100.00;55229.56;5014566;28;20057;-60
2021/06/11 03:03:43;;;;;;;0.98;0.70;;;;;;;-148.58;100.00;55229.56;5014410;28;20072;-61
2021/06/11 03:06:11;;;;;;;0.98;0.50;;;;;;;-148.58;100.00;55229.56;4997003;28;20365;-61
2021/06/11 03:08:40;;;;;;;1.60;0.50;;;;;;;-148.58;100.00;55229.56;5015245;28;20473;-61
2021/06/11 03:11:12;;;;;;;1.38;0.82;;;;;;;-148.58;100.00;55229.56;5028152;28;20038;-61
2021/06/11 03:13:38;;;;;;;0.50;0.50;;;;;;;-148.58;100.00;55229.56;5031413;28;20116;-60
2021/06/11 03:16:04;;;;;;;2.00;0.57;;;;;;;-148.58;100.00;55229.56;5021440;28;20541;-60
2021/06/11 03:18:34;;;;;;;1.10;1.00;;;;;;;-148.58;100.00;55229.56;5014239;28;20108;-61
2021/06/11 03:21:11;;;;;;;2.25;0.70;;;;;;;-148.58;100.00;55229.56;5014122;28;20425;-60
2021/06/11 03:23:44;;;;;;;1.88;0.82;;;;;;;-148.58;100.00;55229.56;5015133;28;20026;-61
2021/06/11 03:26:13;;;;;;;1.38;0.50;;;;;;;-148.58;100.00;55229.56;5033337;28;20564;-60
2021/06/11 03:28:45;;;;;;;1.20;0.50;;;;;;;-148.58;100.00;55229.56;5016754;28;20125;-60
2021/06/11 03:31:18;;;;;;;0.47;0.35;;;;;;;-148.58;100.00;55229.56;5014046;28;20033;-60
2021/06/11 03:33:47;;;;;;;0.88;0.55;;;;;;;-148.58;100.00;55229.56;5013592;28;20048;-60
2021/06/11 03:36:18;;;;;;;0.98;0.47;;;;;;;-148.58;100.00;55229.56;4995803;28;20481;-60
2021/06/11 03:38:47;;;;;;;0.68;0.40;;;;;;;-148.58;100.00;55229.56;5015355;28;20539;-61
2021/06/11 03:41:13;;;;;;;1.23;0.70;;;;;;;-148.58;100.00;55229.56;5033585;28;20100;-61
2021/06/11 03:43:40;;;;;;;0.52;0.45;;;;;;;-148.58;100.00;55229.56;5033233;28;20056;-60
2021/06/11 03:46:06;;;;;;;0.57;0.47;;;;;;;-148.58;100.00;55229.56;5033339;28;20056;-60
2021/06/11 03:48:34;;;;;;;0.45;0.40;;;;;;;-148.58;100.00;55229.56;5033369;28;20017;-60
2021/06/11 03:51:01;;;;;;;0.63;0.40;;;;;;;-148.58;100.00;55229.56;5033282;28;20292;-60
2021/06/11 03:53:27;;;;;;;0.88;0.60;;;;;;;-148.58;100.00;55229.56;5032946;28;20025;-60
2021/06/11 03:56:03;;;;;;;0.68;0.43;;;;;;;-148.58;100.00;55229.56;5013025;28;20017;-60
2021/06/11 03:58:42;;;;;;;0.75;0.55;;;;;;;-148.58;100.00;55229.56;5013476;28;20088;-61
2021/06/11 04:01:12;;;;;;;0.30;0.30;;;;;;;-148.58;100.00;55229.56;5013473;28;20037;-60
2021/06/11 04:03:41;;;;;;;0.47;0.30;;;;;;;-148.58;100.00;55229.56;5013341;28;20081;-60
2021/06/11 04:06:29;;;;;;;0.82;0.45;;;;;;;-148.58;100.00;55229.56;5013218;28;20410;-60
2021/06/11 04:09:00;;;;;;;0.32;0.28;;;;;;;-148.58;100.00;55229.56;4936390;29;20039;-60
2021/06/11 04:11:28;;;;;;;0.40;0.30;;;;;;;-148.58;100.00;55229.56;4952602;29;20552;-60
2021/06/11 04:13:56;;;;;;;0.63;0.30;;;;;;;-148.58;100.00;55229.56;4952148;29;20043;-60
2021/06/11 04:16:38;;;;;;;1.50;0.40;;;;;;;-148.58;100.00;55229.56;4936722;29;20089;-61
2021/06/11 04:19:09;;;;;;;0.22;0.22;;;;;;;-148.58;100.00;55229.56;4952497;29;20100;-61
2021/06/11 04:21:34;;;;;;;0.30;0.30;;;;;;;-148.58;100.00;55229.56;4952402;29;20031;-60
2021/06/11 04:24:06;;;;;;;0.40;0.20;;;;;;;-148.58;100.00;55229.56;4947756;29;20056;-61
2021/06/11 04:26:34;;;;;;;1.00;0.20;;;;;;;-148.58;100.00;55229.56;4933270;29;20040;-60
2021/06/11 04:29:01;;;;;;;0.20;0.20;;;;;;;-148.58;100.00;55229.56;4933143;29;20036;-60
2021/06/11 04:31:29;;;;;;;0.65;0.40;;;;;;;-148.58;100.00;55229.56;4933312;29;20042;-60
2021/06/11 04:33:55;;;;;;;0.20;0.20;;;;;;;-148.58;100.00;55229.56;4932691;29;20048;-60
2021/06/11 04:36:20;;;;;;;0.30;0.20;;;;;;;-148.58;100.00;55229.56;4933093;29;20034;-60
2021/06/11 04:38:55;;;;;;;0.50;0.40;;;;;;;-148.58;100.00;55229.56;4934961;29;20043;-60
2021/06/11 04:41:20;;;;;;;0.55;0.30;;;;;;;-148.58;100.00;55229.56;4951983;29;20061;-60
2021/06/11 04:43:45;;;;;;;0.45;0.10;;;;;;;-148.58;100.00;55229.56;4951523;29;20499;-60
2021/06/11 04:46:10;;;;;;;0.52;0.20;;;;;;;-148.58;100.00;55229.56;4997553;28;20087;-61
2021/06/11 04:48:36;;;;;;;0.65;0.10;;;;;;;-148.58;100.00;55229.56;5032529;28;20026;-60
2021/06/11 04:51:01;;;;;;;1.60;0.22;;;;;;;-148.58;100.00;55229.56;5031938;28;20037;-60
2021/06/11 04:53:26;;;;;;;0.40;0.20;;;;;;;-148.58;100.00;55229.56;5032120;28;20113;-61
2021/06/11 04:55:51;;;;;;;0.10;0.10;;;;;;;-148.58;100.00;55229.56;5012396;28;20029;-61
2021/06/11 04:58:18;;;;;;;0.70;0.20;;;;;;;-148.58;100.00;55229.56;5012627;28;20038;-60
2021/06/11 05:00:43;;;;;;;0.22;0.20;;;;;;;-148.58;100.00;55229.56;4994927;28;20029;-60
2021/06/11 05:03:08;;;;;;;0.47;0.13;;;;;;;-148.58;100.00;55229.56;5012737;28;20033;-60
2021/06/11 05:05:34;;;;;;;0.10;0.10;;;;;;;-148.58;100.00;55229.56;5012631;28;20449;-60
2021/06/11 05:07:59;;;;;;;0.10;0.10;;;;;;;-148.58;100.00;55229.56;5012542;28;20018;-60
2021/06/11 05:10:24;;;;;;;1.30;0.20;;;;;;;-148.58;100.00;55229.56;5012723;28;20216;-60
2021/06/11 05:12:50;;;;;;;2.08;0.47;;;;;;;-148.58;100.00;55229.56;5012449;28;20054;-61
2021/06/11 05:15:16;;;;;;;1.58;0.45;;;;;;;-148.58;100.00;55229.56;5012362;28;20465;-60
2021/06/11 05:17:41;;;;;;;1.48;0.38;;;;;;;-148.58;100.00;55229.56;5012246;28;20068;-60
2021/06/11 05:20:07;;;;;;;1.40;0.30;;;;;;;-148.58;100.00;55229.56;4994890;28;20022;-60
2021/06/11 05:22:32;;;;;;;2.25;0.17;;;;;;;-148.58;100.00;55229.56;5012515;28;20105;-60
2021/06/11 05:24:59;;;;;;;0.40;0.30;;;;;;;-148.58;100.00;55229.56;5012405;28;20057;-61
2021/06/11 05:27:25;;;;;;;0.10;0.10;;;;;;;-148.58;100.00;55229.56;5012585;28;20022;-61
2021/06/11 05:29:50;;;;;;;1.00;0.32;;;;;;;-148.58;100.00;55229.56;5012279;28;20246;-61
2021/06/11 05:32:15;;;;;;;0.30;0.10;;;;;;;-148.58;100.00;55229.56;5013023;28;20022;-61
2021/06/11 05:34:40;;;;;;;1.10;0.15;;;;;;;-148.58;100.00;55229.56;5012100;28;20419;-61
2021/06/11 05:37:06;;;;;;;0.10;0.10;;;;;;;-148.58;100.00;55229.56;5012595;28;20018;-60
2021/06/11 05:39:31;;;;;;;0.43;0.13;;;;;;;-148.58;100.00;55229.56;5020776;28;20029;-61
2021/06/11 05:41:58;;;;;;;0.47;0.10;;;;;;;-148.58;100.00;55229.56;5031190;28;20022;-61
2021/06/11 05:44:23;;;;;;;0.30;0.20;;;;;;;-148.58;100.00;55229.56;5032056;28;20034;-60
2021/06/11 05:46:48;;;;;;;0.20;0.10;;;;;;;-148.58;100.00;55229.56;5031760;28;20040;-60
2021/06/11 05:49:13;;;;;;;0.10;0.10;;;;;;;-148.58;100.00;55229.56;5032042;28;20036;-60
2021/06/11 05:51:39;;;;;;;0.50;0.30;;;;;;;-148.58;100.00;55229.56;5031850;28;20021;-60
2021/06/11 05:54:04;;;;;;;0.60;0.10;;;;;;;-148.58;100.00;55229.56;5026460;28;20030;-60
2021/06/11 05:56:30;;;;;;;0.13;0.10;;;;;;;-148.58;100.00;55229.56;5011777;28;20044;-61
2021/06/11 05:58:55;;;;;;;0.55;0.17;;;;;;;-148.58;100.00;55229.56;5011988;28;20030;-61
2021/06/11 06:01:20;;;;;;;0.20;0.20;;;;;;;-148.58;100.00;55229.56;5012239;28;20462;-61
2021/06/11 06:03:47;;;;;;;0.65;0.10;;;;;;;-148.58;100.00;55229.56;5014924;28;20029;-60
2021/06/11 06:06:12;;;;;;;0.20;0.10;;;;;;;-148.58;100.00;55229.56;5015532;28;20022;-61
2021/06/11 06:08:37;;;;;;;0.30;0.10;;;;;;;-148.58;100.00;55229.56;5015231;28;20065;-61
2021/06/11 06:11:03;;;;;;;0.10;0.10;;;;;;;-148.58;100.00;55229.56;5034619;28;20078;-61
2021/06/11 06:13:28;;;;;;;0.32;0.00;;;;;;;-148.58;100.00;55229.56;5034545;28;20457;-61
2021/06/11 06:15:54;;;;;;;0.70;0.10;;;;;;;-148.58;100.00;55229.56;5033136;28;20029;-62
2021/06/11 06:18:19;;;;;;;0.20;0.10;;;;;;;-148.58;100.00;55229.56;5035156;28;20018;-61
2021/06/11 06:20:46;;;;;;;0.45;0.20;;;;;;;-148.58;100.00;55229.56;5012365;28;20419;-60
2021/06/11 06:23:12;;;;;;;0.00;0.00;;;;;;;-148.58;100.00;55229.56;5014969;28;20030;-61
2021/06/11 06:25:37;;;;;;;1.10;0.20;;;;;;;-148.58;100.00;55229.56;5018576;28;20049;-60
2021/06/11 06:28:02;;;;;;;0.40;0.10;;;;;;;-148.58;100.00;55229.56;5014117;28;20061;-61
2021/06/11 06:30:28;;;;;;;0.28;0.20;;;;;;;-148.58;100.00;55229.56;5014790;28;20042;-60
2021/06/11 06:32:53;;;;;;;0.20;0.00;;;;;;;-148.58;100.00;55229.56;5014730;28;20060;-62
2021/06/11 06:35:18;;;;;;;0.10;0.10;;;;;;;-148.58;100.00;55229.56;5013063;28;20381;-60
2021/06/11 06:37:44;;;;;;;0.20;0.20;;;;;;;-148.58;100.00;55229.56;5010444;28;20068;-60
2021/06/11 06:40:10;;;;;;;0.25;0.20;;;;;;;-148.58;100.00;55229.56;5018516;28;20033;-60
2021/06/11 06:42:36;;;;;;;0.10;0.05;;;;;;;-148.58;100.00;55229.56;5012741;28;20029;-61
2021/06/11 06:45:02;;;;;;;0.50;0.17;;;;;;;-148.58;100.00;55229.56;5002412;28;20034;-60
2021/06/11 06:47:28;;;;;;;0.05;0.05;;;;;;;-148.58;100.00;55229.56;5008593;28;20033;-60
2021/06/11 06:49:53;;;;;;;0.40;0.10;;;;;;;-148.58;100.00;55229.56;5013058;28;20117;-61
2021/06/11 06:52:19;;;;;;;0.10;0.10;;;;;;;-148.58;100.00;55229.56;5013788;28;20465;-60
2021/06/11 06:54:44;;;;;;;0.55;0.15;;;;;;;-148.58;100.00;55229.56;5006631;28;20492;-61
2021/06/11 06:57:11;;;;;;;0.20;0.10;;;;;;;-148.58;100.00;55229.56;5011401;28;20524;-61
2021/06/11 06:59:36;;;;;;;2.70;0.15;;;;;;;-148.58;100.00;55229.56;5011013;28;20112;-63
2021/06/11 07:02:02;;;;;;;0.50;0.10;;;;;;;-148.58;100.00;55229.56;5008772;28;20112;-61
2021/06/11 07:04:28;;;;;;;0.45;0.10;;;;;;;-148.58;100.00;55229.56;5013847;28;20041;-61
2021/06/11 07:06:53;;;;;;;0.90;0.20;;;;;;;-148.58;100.00;55229.56;5013974;28;20100;-61
2021/06/11 07:09:19;;;;;;;1.10;0.38;;;;;;;-148.58;100.00;55229.56;5014247;28;20034;-60
2021/06/11 07:11:47;;;;;;;0.73;0.28;;;;;;;-148.58;100.00;55229.56;5012032;28;20022;-61
2021/06/11 07:14:13;;;;;;;0.90;0.30;;;;;;;-148.58;100.00;55229.56;5012438;28;20450;-61
2021/06/11 07:16:38;;;;;;;0.38;0.20;;;;;;;-148.58;100.00;55229.56;4995214;28;20025;-61
2021/06/11 07:19:03;;;;;;;0.10;0.05;;;;;;;-148.58;100.00;55229.56;5013598;28;20057;-61
2021/06/11 07:21:29;;;;;;;0.40;0.10;;;;;;;-148.58;100.00;55229.56;5013411;28;20052;-61
2021/06/11 07:23:54;;;;;;;1.10;0.20;;;;;;;-148.58;100.00;55229.56;5016799;28;20025;-61
2021/06/11 07:26:19;;;;;;;1.10;0.30;;;;;;;-148.58;100.00;55229.56;5014133;28;20029;-60
2021/06/11 07:28:46;;;;;;;1.60;0.47;;;;;;;-148.58;100.00;55229.56;5015656;28;20071;-61
2021/06/11 07:31:11;;;;;;;1.02;0.40;;;;;;;-148.58;100.00;55229.56;4999135;28;20120;-60
2021/06/11 07:33:36;;;;;;;1.38;0.40;;;;;;;-148.58;100.00;55229.56;5017971;28;20108;-61
2021/06/11 07:36:02;;;;;;;1.05;0.20;;;;;;;-148.58;100.00;55229.56;5012733;28;20037;-60
2021/06/11 07:38:28;;;;;;;1.00;0.20;;;;;;;-148.58;100.00;55229.56;5011678;28;20018;-61
2021/06/11 07:40:53;;;;;;;1.02;0.40;;;;;;;-148.58;100.00;55229.56;5031996;28;20464;-63
2021/06/11 07:43:22;;;;;;;0.40;0.20;;;;;;;-148.58;100.00;55229.56;5014816;28;20469;-60
2021/06/11 07:45:51;;;;;;;1.05;0.63;;;;;;;-148.58;100.00;55229.56;5016605;28;20018;-59
2021/06/11 07:48:17;;;;;;;1.10;0.90;;;;;;;-148.58;100.00;55229.56;5022561;28;20113;-60
2021/06/11 07:50:43;;;;;;;2.13;1.40;;;;;;;-148.58;100.00;55229.56;5017813;28;20056;-60
2021/06/11 07:53:09;;;;;;;1.60;1.50;;;;;;;-148.58;100.00;55229.56;5008873;28;20026;-59
2021/06/11 07:55:34;;;;;;;2.85;2.20;;;;;;;-148.58;100.00;55229.56;5013719;28;20124;-60
2021/06/11 07:58:00;;;;;;;3.20;2.80;;;;;;;-148.58;100.00;55229.56;5010929;28;20389;-60
2021/06/11 08:00:27;;;;;;;4.85;2.95;;;;;;;-148.58;100.00;55229.56;5025748;28;20070;-59
2021/06/11 08:02:54;;;;;;;3.25;2.95;;;;;;;-148.58;100.00;55229.56;5012795;28;20063;-60
2021/06/11 08:05:19;;;;;;;2.83;2.60;;;;;;;-148.58;100.00;55229.56;5026784;28;20121;-59
2021/06/11 08:07:44;;;;;;;3.47;3.15;;;;;;;-148.58;100.00;55229.56;5014821;28;20104;-60
2021/06/11 08:10:10;;;;;;;3.95;3.35;;;;;;;-148.58;100.00;55229.56;5024492;28;20029;-59
2021/06/11 08:12:36;;;;;;;3.55;2.92;;;;;;;-148.58;100.00;55229.56;5022190;28;20038;-60
2021/06/11 08:15:01;;;;;;;3.50;3.08;;;;;;;-148.58;100.00;55229.56;5011240;28;20041;-60
2021/06/11 08:17:26;;;;;;;3.33;3.03;;;;;;;-148.58;100.00;55229.56;5012553;28;20064;-60
2021/06/11 08:19:52;;;;;;;3.10;2.80;;;;;;;-148.58;100.00;55229.56;5012666;28;20056;-60
2021/06/11 08:22:18;;;;;;;3.20;2.90;;;;;;;-148.58;100.00;55229.56;5012516;28;20037;-59
2021/06/11 08:24:43;;;;;;;2.72;2.50;;;;;;;-148.58;100.00;55229.56;5011387;28;20553;-59
2021/06/11 08:27:08;;;;;;;4.43;2.80;;;;;;;-148.58;100.00;55229.56;5011214;28;20033;-60
2021/06/11 08:29:34;;;;;;;2.78;2.58;;;;;;;-148.58;100.00;55229.56;5010590;28;20410;-60
2021/06/11 08:32:00;;;;;;;2.92;2.60;;;;;;;-148.58;100.00;55229.56;5012439;28;20033;-60
2021/06/11 08:34:27;;;;;;;2.40;2.17;;;;;;;-148.58;100.00;55229.56;5023283;28;20037;-60
2021/06/11 08:36:52;;;;;;;2.38;2.08;;;;;;;-148.58;100.00;55229.56;5011679;28;20022;-60
2021/06/11 08:39:17;;;;;;;2.20;2.00;;;;;;;-148.58;100.00;55229.56;5015964;28;20218;-60
2021/06/11 08:41:43;;;;;;;2.25;1.90;;;;;;;-148.58;100.00;55229.56;5026601;28;20083;-60
2021/06/11 08:44:08;;;;;;;2.50;2.03;;;;;;;-148.58;100.00;55229.56;5010325;28;20554;-61
2021/06/11 08:46:35;;;;;;;2.10;1.90;;;;;;;-148.58;100.00;55229.56;5011184;28;20355;-60
2021/06/11 08:49:02;;;;;;;1.98;1.70;;;;;;;-148.58;100.00;55229.56;5016328;28;20055;-60
2021/06/11 08:51:30;;;;;;;2.17;1.80;;;;;;;-148.58;100.00;55229.56;5010658;28;20540;-60
2021/06/11 08:53:56;;;;;;;1.80;1.70;;;;;;;-148.58;100.00;55229.56;5010026;28;20022;-60
2021/06/11 08:56:21;;;;;;;1.65;1.50;;;;;;;-148.58;100.00;55229.56;5011338;28;20433;-61
2021/06/11 08:58:49;;;;;;;1.50;1.40;;;;;;;-148.58;100.00;55229.56;5009767;28;20128;-60
2021/06/11 09:01:14;;;;;;;1.48;1.30;;;;;;;-148.58;100.00;55229.56;5011842;28;20469;-60
2021/06/11 09:03:43;;;;;;;1.33;1.20;;;;;;;-148.58;100.00;55229.56;5012294;28;20030;-60
2021/06/11 09:06:12;;;;;;;1.60;1.30;;;;;;;-148.58;100.00;55229.56;5009878;28;20022;-61
2021/06/11 09:08:40;;;;;;;1.25;1.15;;;;;;;-148.58;100.00;55229.56;5011407;28;20053;-59
2021/06/11 09:11:10;;;;;;;1.00;0.90;;;;;;;-148.58;100.00;55229.56;5010803;28;20030;-58
2021/06/11 09:13:35;;;;;;;1.48;1.10;;;;;;;-148.58;100.00;55229.56;5011418;28;20060;-59
2021/06/11 09:16:20;;;;;;;1.48;0.88;;;;;;;-148.58;100.00;55229.56;5013392;28;20053;-57
2021/06/11 09:19:06;;;;;;;1.98;1.00;;;;;;;-148.58;100.00;55229.56;5032015;28;20048;-57
2021/06/11 09:21:41;;;;;;;1.80;1.15;;;;;;;-148.58;100.00;55229.56;5008456;28;20034;-57
2021/06/11 09:24:27;;;;;;;1.10;0.90;;;;;;;-148.58;100.00;55229.56;5026768;28;20059;-57
2021/06/11 09:26:58;;;;;;;0.80;0.80;;;;;;;-148.58;100.00;55229.56;5010811;28;20037;-56
2021/06/11 09:29:25;;;;;;;0.85;0.85;;;;;;;-148.58;100.00;55229.56;5013736;28;20042;-57
2021/06/11 09:32:08;;;;;;;0.75;0.65;;;;;;;-148.58;100.00;55229.56;5009884;28;20034;-57
2021/06/11 09:34:34;;;;;;;0.73;0.70;;;;;;;-148.58;100.00;55229.56;5009096;28;20030;-58
2021/06/11 09:37:01;;;;;;;0.73;0.60;;;;;;;-148.58;100.00;55229.56;5025219;28;20258;-59
2021/06/11 09:40:12;;;;;;;0.60;0.60;;;;;;;-148.58;100.00;55229.56;5015120;28;20453;-58
2021/06/11 09:42:41;;;;;;;0.85;0.50;;;;;;;-148.58;100.00;55229.56;4963956;28;20055;-58
2021/06/11 09:45:09;;;;;;;0.68;0.50;;;;;;;-148.58;100.00;55229.56;4955224;28;20059;-58
2021/06/11 09:47:38;;;;;;;1.13;0.50;;;;;;;-148.58;100.00;55229.56;4952681;28;20032;-60
2021/06/11 09:50:25;;;;;;;1.50;0.52;;;;;;;-148.58;100.00;55229.56;4998328;23;20038;-58
2021/06/11 09:53:00;;;;;;;0.98;0.55;;;;;;;-148.58;100.00;55229.56;5010168;28;20060;-58
2021/06/11 09:55:28;;;;;;;2.10;0.70;;;;;;;-148.58;100.00;55229.56;5014566;28;20030;-59
2021/06/11 09:58:17;;;;;;;0.45;0.30;;;;;;;-148.58;100.00;55229.56;5000466;28;20113;-59
2021/06/11 10:00:55;;;;;;;2.15;0.47;;;;;;;-148.58;100.00;55229.56;5024830;28;20396;-58
2021/06/11 10:03:27;;;;;;;0.20;0.20;;;;;;;-148.58;100.00;55229.56;5013970;28;20509;-57
2021/06/11 10:05:54;;;;;;;0.45;0.40;;;;;;;-148.58;100.00;55229.56;5012727;28;20018;-59
2021/06/11 10:08:23;;;;;;;0.43;0.30;;;;;;;-148.58;100.00;55229.56;5011481;28;20440;-58
2021/06/11 10:10:51;;;;;;;1.55;0.13;;;;;;;-148.58;100.00;55229.56;5012221;28;20064;-58
2021/06/11 10:13:18;;;;;;;0.32;0.30;;;;;;;-148.58;100.00;55229.56;5013225;28;20108;-58
2021/06/11 10:15:45;;;;;;;1.80;0.30;;;;;;;-148.58;100.00;55229.56;5015218;28;20027;-58
2021/06/11 10:18:12;;;;;;;0.82;0.20;;;;;;;-148.58;100.00;55229.56;5015311;28;20026;-57
2021/06/11 10:20:38;;;;;;;0.57;0.30;;;;;;;-148.58;100.00;55229.56;5011077;28;20026;-57
2021/06/11 10:23:05;;;;;;;2.42;0.68;;;;;;;-148.58;100.00;55229.56;5022503;28;20028;-57
2021/06/11 10:25:31;;;;;;;0.57;0.20;;;;;;;-148.58;100.00;55229.56;5014960;28;20029;-58
2021/06/11 10:27:57;;;;;;;0.93;0.32;;;;;;;-148.58;100.00;55229.56;5012649;28;20085;-57
2021/06/11 10:30:28;;;;;;;0.60;0.30;;;;;;;-148.58;100.00;55229.56;5013532;28;20037;-57
2021/06/11 10:32:53;;;;;;;0.50;0.30;;;;;;;-148.58;100.00;55229.56;5014627;28;20030;-60
2021/06/11 10:35:38;;;;;;;0.43;0.22;;;;;;;-148.58;100.00;55229.56;5014943;28;20022;-57
2021/06/11 10:38:03;;;;;;;0.20;0.13;;;;;;;-148.58;100.00;55229.56;5014591;28;20543;-58
2021/06/11 10:40:33;;;;;;;0.20;0.10;;;;;;;-148.58;100.00;55229.56;5014064;28;20125;-58
2021/06/11 10:43:20;;;;;;;0.75;0.65;;;;;;;-148.58;100.00;55229.56;5014501;28;20100;-57
2021/06/11 10:45:45;;;;;;;1.27;0.30;;;;;;;-148.58;100.00;55229.56;5014801;28;20025;-57
2021/06/11 10:48:11;;;;;;;0.20;0.10;;;;;;;-148.58;100.00;55229.56;5014017;28;20491;-57
2021/06/11 10:50:38;;;;;;;0.35;0.20;;;;;;;-148.58;100.00;55229.56;5014717;28;20054;-57
2021/06/11 10:53:12;;;;;;;0.10;0.10;;;;;;;-148.58;100.00;55229.56;5014728;28;20564;-58
2021/06/11 10:55:45;;;;;;;0.60;0.35;;;;;;;-148.58;100.00;55229.56;4996798;28;20385;-58
2021/06/11 10:58:10;;;;;;;0.20;0.10;;;;;;;-148.58;100.00;55229.56;5006629;28;20033;-58
2021/06/11 11:00:40;;;;;;;0.60;0.20;;;;;;;-148.58;100.00;55229.56;5003170;28;20026;-58
2021/06/11 11:03:08;;;;;;;0.80;0.40;;;;;;;-148.58;100.00;55229.56;5013104;28;20282;-57
2021/06/11 11:05:35;;;;;;;0.47;0.17;;;;;;;-148.58;100.00;55229.56;5012049;28;20061;-57
2021/06/11 11:08:05;;;;;;;1.13;0.40;;;;;;;-148.58;100.00;55229.56;5014232;28;20053;-58
2021/06/11 11:10:43;;;;;;;1.02;0.47;;;;;;;-148.58;100.00;55229.56;5012280;28;20385;-58
2021/06/11 11:13:13;;;;;;;3.25;0.40;;;;;;;-148.58;100.00;55229.56;5008852;28;20030;-58